sensor_id;sensor_type;location;lat;lon;timestamp;pressure;altitude;pressure_sealevel;temperature;humidity
40490;BME280;26196;52.302;10.572;2023-04-15T00:00:52;99915.81;;;14.39;45.24
40490;BME280;26196;52.302;10.572;2023-04-15T00:04:52;99914.97;;;14.38;45.06
40490;BME280;26196;52.302;10.572;2023-04-15T00:08:53;99904.44;;;14.38;45.09
40490;BME280;26196;52.302;10.572;2023-04-15T00:13:27;99900.13;;;14.37;45.33
40490;BME280;26196;52.302;10.572;2023-04-15T00:17:27;99894.94;;;14.36;45.09
40490;BME280;26196;52.302;10.572;2023-04-15T00:21:28;99887.03;;;14.36;44.89
40490;BME280;26196;52.302;10.572;2023-04-15T00:25:28;99891.56;;;14.34;45.13
40490;BME280;26196;52.302;10.572;2023-04-15T00:29:29;99889.94;;;14.31;45.27
40490;BME280;26196;52.302;10.572;2023-04-15T00:33:30;99885.41;;;14.33;45.29
40490;BME280;26196;52.302;10.572;2023-04-15T00:37:30;99877.00;;;14.27;45.34
40490;BME280;26196;52.302;10.572;2023-04-15T00:41:31;99876.06;;;14.28;45.25
40490;BME280;26196;52.302;10.572;2023-04-15T00:45:33;99878.84;;;14.25;45.54
40490;BME280;26196;52.302;10.572;2023-04-15T00:49:33;99880.41;;;14.29;45.21
40490;BME280;26196;52.302;10.572;2023-04-15T00:58:11;99877.91;;;14.26;45.83
40490;BME280;26196;52.302;10.572;2023-04-15T01:02:11;99871.03;;;14.23;45.41
40490;BME280;26196;52.302;10.572;2023-04-15T01:06:12;99873.75;;;14.21;45.52
40490;BME280;26196;52.302;10.572;2023-04-15T01:10:13;99870.28;;;14.21;46.01
40490;BME280;26196;52.302;10.572;2023-04-15T01:14:48;99870.53;;;14.16;46.09
40490;BME280;26196;52.302;10.572;2023-04-15T01:18:50;99864.06;;;14.22;46.00
40490;BME280;26196;52.302;10.572;2023-04-15T01:22:51;99863.22;;;14.21;45.45
40490;BME280;26196;52.302;10.572;2023-04-15T01:27:26;99852.00;;;14.18;45.95
40490;BME280;26196;52.302;10.572;2023-04-15T01:31:26;99859.16;;;14.16;45.80
40490;BME280;26196;52.302;10.572;2023-04-15T01:35:26;99858.13;;;14.18;45.72
40490;BME280;26196;52.302;10.572;2023-04-15T01:39:27;99851.31;;;14.14;45.88
40490;BME280;26196;52.302;10.572;2023-04-15T01:43:27;99841.03;;;14.10;46.13
40490;BME280;26196;52.302;10.572;2023-04-15T01:48:02;99847.91;;;14.12;46.22
40490;BME280;26196;52.302;10.572;2023-04-15T01:52:02;99833.97;;;14.10;45.91
40490;BME280;26196;52.302;10.572;2023-04-15T01:56:37;99833.13;;;14.10;46.05
40490;BME280;26196;52.302;10.572;2023-04-15T02:00:38;99825.56;;;14.04;45.80
40490;BME280;26196;52.302;10.572;2023-04-15T02:04:38;99821.94;;;14.06;45.92
40490;BME280;26196;52.302;10.572;2023-04-15T02:08:38;99819.38;;;14.05;46.63
40490;BME280;26196;52.302;10.572;2023-04-15T02:12:39;99826.50;;;14.03;46.12
40490;BME280;26196;52.302;10.572;2023-04-15T02:17:13;99823.72;;;14.06;46.56
40490;BME280;26196;52.302;10.572;2023-04-15T02:21:14;99824.63;;;14.05;46.08
40490;BME280;26196;52.302;10.572;2023-04-15T02:25:14;99815.38;;;13.97;45.95
40490;BME280;26196;52.302;10.572;2023-04-15T02:29:50;99829.22;;;14.01;46.19
40490;BME280;26196;52.302;10.572;2023-04-15T02:33:50;99826.56;;;14.01;46.25
40490;BME280;26196;52.302;10.572;2023-04-15T02:37:51;99824.97;;;13.98;46.41
40490;BME280;26196;52.302;10.572;2023-04-15T02:41:51;99844.22;;;13.99;46.34
40490;BME280;26196;52.302;10.572;2023-04-15T02:45:52;99842.59;;;13.96;46.46
40490;BME280;26196;52.302;10.572;2023-04-15T02:49:52;99838.34;;;13.94;46.40
40490;BME280;26196;52.302;10.572;2023-04-15T02:53:52;99834.09;;;13.91;46.45
40490;BME280;26196;52.302;10.572;2023-04-15T02:57:53;99834.88;;;13.93;47.08
40490;BME280;26196;52.302;10.572;2023-04-15T03:01:53;99841.06;;;13.92;46.90
40490;BME280;26196;52.302;10.572;2023-04-15T03:05:55;99840.28;;;13.90;47.20
40490;BME280;26196;52.302;10.572;2023-04-15T03:09:56;99836.88;;;13.88;46.93
40490;BME280;26196;52.302;10.572;2023-04-15T03:13:57;99844.63;;;13.91;47.04
40490;BME280;26196;52.302;10.572;2023-04-15T03:18:31;99836.81;;;13.90;46.76
40490;BME280;26196;52.302;10.572;2023-04-15T03:22:32;99830.69;;;13.89;47.12
40490;BME280;26196;52.302;10.572;2023-04-15T03:26:32;99829.06;;;13.87;47.02
40490;BME280;26196;52.302;10.572;2023-04-15T03:30:33;99826.53;;;13.85;46.60
40490;BME280;26196;52.302;10.572;2023-04-15T03:34:33;99830.06;;;13.84;47.06
40490;BME280;26196;52.302;10.572;2023-04-15T03:38:33;99816.91;;;13.84;46.59
40490;BME280;26196;52.302;10.572;2023-04-15T03:47:48;99820.50;;;13.83;47.28
40490;BME280;26196;52.302;10.572;2023-04-15T03:51:48;99818.09;;;13.78;47.32
40490;BME280;26196;52.302;10.572;2023-04-15T03:55:49;99822.34;;;13.81;46.76
40490;BME280;26196;52.302;10.572;2023-04-15T03:59:50;99823.28;;;13.80;46.96
40490;BME280;26196;52.302;10.572;2023-04-15T04:03:50;99822.59;;;13.76;47.40
40490;BME280;26196;52.302;10.572;2023-04-15T04:07:50;99819.81;;;13.79;47.48
40490;BME280;26196;52.302;10.572;2023-04-15T04:11:51;99817.47;;;13.73;47.58
40490;BME280;26196;52.302;10.572;2023-04-15T04:15:51;99811.38;;;13.73;47.77
40490;BME280;26196;52.302;10.572;2023-04-15T04:19:51;99821.97;;;13.71;47.93
40490;BME280;26196;52.302;10.572;2023-04-15T04:23:52;99819.41;;;13.70;47.51
40490;BME280;26196;52.302;10.572;2023-04-15T04:27:52;99826.25;;;13.74;47.37
40490;BME280;26196;52.302;10.572;2023-04-15T04:31:52;99812.38;;;13.70;47.57
40490;BME280;26196;52.302;10.572;2023-04-15T04:35:53;99816.84;;;13.68;47.68
40490;BME280;26196;52.302;10.572;2023-04-15T04:40:30;99811.69;;;13.67;47.74
40490;BME280;26196;52.302;10.572;2023-04-15T04:44:30;99813.53;;;13.65;48.49
40490;BME280;26196;52.302;10.572;2023-04-15T04:49:07;99813.53;;;13.65;48.16
40490;BME280;26196;52.302;10.572;2023-04-15T04:57:45;99787.31;;;13.63;48.28
40490;BME280;26196;52.302;10.572;2023-04-15T05:01:45;99789.09;;;13.63;48.15
40490;BME280;26196;52.302;10.572;2023-04-15T05:05:46;99795.28;;;13.62;47.95
40490;BME280;26196;52.302;10.572;2023-04-15T05:10:21;99793.66;;;13.59;47.88
40490;BME280;26196;52.302;10.572;2023-04-15T05:14:59;99797.31;;;13.56;47.91
40490;BME280;26196;52.302;10.572;2023-04-15T05:19:33;99801.47;;;13.61;48.52
40490;BME280;26196;52.302;10.572;2023-04-15T05:23:33;99799.72;;;13.61;48.59
40490;BME280;26196;52.302;10.572;2023-04-15T05:27:34;99810.91;;;13.65;49.68
40490;BME280;26196;52.302;10.572;2023-04-15T05:32:09;99814.16;;;13.70;48.26
40490;BME280;26196;52.302;10.572;2023-04-15T05:36:09;99812.47;;;13.69;48.46
40490;BME280;26196;52.302;10.572;2023-04-15T05:40:10;99819.56;;;13.67;48.30
40490;BME280;26196;52.302;10.572;2023-04-15T05:44:11;99822.19;;;13.84;48.99
40490;BME280;26196;52.302;10.572;2023-04-15T05:48:48;99819.41;;;13.87;49.49
40490;BME280;26196;52.302;10.572;2023-04-15T05:52:49;99826.03;;;13.94;49.33
40490;BME280;26196;52.302;10.572;2023-04-15T05:56:49;99822.41;;;13.97;49.24
40490;BME280;26196;52.302;10.572;2023-04-15T06:05:27;99827.81;;;13.94;49.72
40490;BME280;26196;52.302;10.572;2023-04-15T06:14:40;99822.50;;;13.95;49.63
40490;BME280;26196;52.302;10.572;2023-04-15T06:19:14;99827.75;;;13.95;50.00
40490;BME280;26196;52.302;10.572;2023-04-15T06:23:52;99835.66;;;13.95;50.01
40490;BME280;26196;52.302;10.572;2023-04-15T06:27:52;99839.41;;;14.07;49.46
40490;BME280;26196;52.302;10.572;2023-04-15T06:32:27;99837.94;;;14.01;49.62
40490;BME280;26196;52.302;10.572;2023-04-15T06:37:04;99845.56;;;13.90;49.83
40490;BME280;26196;52.302;10.572;2023-04-15T06:41:39;99849.59;;;13.80;49.18
40490;BME280;26196;52.302;10.572;2023-04-15T06:46:13;99848.03;;;13.76;49.54
40490;BME280;26196;52.302;10.572;2023-04-15T06:50:14;99854.91;;;13.78;49.89
40490;BME280;26196;52.302;10.572;2023-04-15T06:54:14;99860.44;;;13.74;49.72
40490;BME280;26196;52.302;10.572;2023-04-15T06:58:48;99850.66;;;13.76;49.58
40490;BME280;26196;52.302;10.572;2023-04-15T07:12:23;99855.91;;;13.76;49.53
40490;BME280;26196;52.302;10.572;2023-04-15T07:16:57;99853.59;;;13.70;49.80
40490;BME280;26196;52.302;10.572;2023-04-15T07:20:58;99852.81;;;13.68;50.04
40490;BME280;26196;52.302;10.572;2023-04-15T07:29:35;99868.59;;;13.68;49.91
40490;BME280;26196;52.302;10.572;2023-04-15T07:33:36;99863.19;;;13.71;50.24
40490;BME280;26196;52.302;10.572;2023-04-15T07:37:36;99872.84;;;13.70;49.73
40490;BME280;26196;52.302;10.572;2023-04-15T07:41:37;99870.31;;;13.69;50.19
40490;BME280;26196;52.302;10.572;2023-04-15T07:45:38;99865.97;;;13.68;50.59
40490;BME280;26196;52.302;10.572;2023-04-15T07:50:15;99869.44;;;13.68;49.73
40490;BME280;26196;52.302;10.572;2023-04-15T07:54:50;99875.44;;;13.72;49.62
40490;BME280;26196;52.302;10.572;2023-04-15T07:59:28;99881.69;;;13.69;50.21
40490;BME280;26196;52.302;10.572;2023-04-15T08:04:03;99876.28;;;13.72;50.52
40490;BME280;26196;52.302;10.572;2023-04-15T08:08:03;99879.28;;;13.65;50.62
40490;BME280;26196;52.302;10.572;2023-04-15T08:12:04;99887.13;;;13.66;50.12
40490;BME280;26196;52.302;10.572;2023-04-15T08:16:38;99891.22;;;13.72;50.58
40490;BME280;26196;52.302;10.572;2023-04-15T08:30:33;99902.09;;;13.82;50.68
40490;BME280;26196;52.302;10.572;2023-04-15T08:34:33;99899.56;;;13.80;50.45
40490;BME280;26196;52.302;10.572;2023-04-15T08:38:34;99901.56;;;13.75;50.87
40490;BME280;26196;52.302;10.572;2023-04-15T08:43:10;99905.88;;;13.76;50.83
40490;BME280;26196;52.302;10.572;2023-04-15T08:47:12;99907.00;;;13.72;51.39
40490;BME280;26196;52.302;10.572;2023-04-15T08:51:48;99920.81;;;13.75;50.77
40490;BME280;26196;52.302;10.572;2023-04-15T08:56:25;99918.34;;;13.72;51.39
40490;BME280;26196;52.302;10.572;2023-04-15T09:01:01;99916.50;;;13.74;51.35
40490;BME280;26196;52.302;10.572;2023-04-15T09:05:36;99917.34;;;13.75;51.44
40490;BME280;26196;52.302;10.572;2023-04-15T09:10:13;99924.31;;;13.76;51.53
40490;BME280;26196;52.302;10.572;2023-04-15T09:14:48;99928.50;;;13.80;50.75
40490;BME280;26196;52.302;10.572;2023-04-15T09:19:25;99919.91;;;13.76;51.18
40490;BME280;26196;52.302;10.572;2023-04-15T09:23:26;99923.47;;;13.75;51.75
40490;BME280;26196;52.302;10.572;2023-04-15T09:28:02;99925.88;;;13.80;51.49
40490;BME280;26196;52.302;10.572;2023-04-15T09:32:37;99931.97;;;13.81;51.39
40490;BME280;26196;52.302;10.572;2023-04-15T09:37:14;99932.81;;;13.81;51.73
40490;BME280;26196;52.302;10.572;2023-04-15T09:50:39;99938.41;;;13.75;52.48
40490;BME280;26196;52.302;10.572;2023-04-15T09:55:12;99950.44;;;13.79;52.86
40490;BME280;26196;52.302;10.572;2023-04-15T09:59:46;99945.91;;;13.83;52.19
40490;BME280;26196;52.302;10.572;2023-04-15T10:04:21;99955.59;;;13.82;53.21
40490;BME280;26196;52.302;10.572;2023-04-15T10:13:20;99953.72;;;13.84;53.02
40490;BME280;26196;52.302;10.572;2023-04-15T10:22:28;99959.91;;;13.83;53.50
40490;BME280;26196;52.302;10.572;2023-04-15T10:27:06;99953.63;;;13.86;53.47
40490;BME280;26196;52.302;10.572;2023-04-15T10:31:40;99960.69;;;13.85;53.60
40490;BME280;26196;52.302;10.572;2023-04-15T10:36:15;99969.44;;;13.86;54.04
40490;BME280;26196;52.302;10.572;2023-04-15T10:40:52;99970.22;;;13.88;54.02
40490;BME280;26196;52.302;10.572;2023-04-15T10:44:55;99977.72;;;13.95;53.54
40490;BME280;26196;52.302;10.572;2023-04-15T10:54:02;99981.88;;;13.99;55.80
40490;BME280;26196;52.302;10.572;2023-04-15T10:58:41;99991.13;;;14.08;55.63
40490;BME280;26196;52.302;10.572;2023-04-15T11:03:16;99995.50;;;14.08;56.79
40490;BME280;26196;52.302;10.572;2023-04-15T11:07:53;99995.19;;;13.96;57.36
40490;BME280;26196;52.302;10.572;2023-04-15T11:16:52;100018.19;;;13.93;57.21
40490;BME280;26196;52.302;10.572;2023-04-15T11:20:57;100010.56;;;13.87;57.64
40490;BME280;26196;52.302;10.572;2023-04-15T11:25:30;100026.25;;;13.90;57.46
40490;BME280;26196;52.302;10.572;2023-04-15T11:34:44;100030.63;;;13.89;57.86
40490;BME280;26196;52.302;10.572;2023-04-15T11:49:08;100044.13;;;14.00;57.95
40490;BME280;26196;52.302;10.572;2023-04-15T11:58:23;100055.50;;;14.01;58.97
40490;BME280;26196;52.302;10.572;2023-04-15T12:12:17;100054.94;;;13.94;58.67
40490;BME280;26196;52.302;10.572;2023-04-15T12:21:33;100064.41;;;13.98;58.93
40490;BME280;26196;52.302;10.572;2023-04-15T12:26:09;100064.41;;;13.98;59.14
40490;BME280;26196;52.302;10.572;2023-04-15T12:35:22;100070.44;;;14.00;59.17
40490;BME280;26196;52.302;10.572;2023-04-15T12:40:00;100069.50;;;14.01;59.02
40490;BME280;26196;52.302;10.572;2023-04-15T12:44:38;100074.06;;;13.98;59.75
40490;BME280;26196;52.302;10.572;2023-04-15T12:49:15;100086.13;;;14.02;60.21
40490;BME280;26196;52.302;10.572;2023-04-15T12:53:50;100079.97;;;14.03;60.57
40490;BME280;26196;52.302;10.572;2023-04-15T12:58:27;100084.22;;;14.06;60.49
40490;BME280;26196;52.302;10.572;2023-04-15T13:03:02;100090.34;;;14.06;60.73
40490;BME280;26196;52.302;10.572;2023-04-15T13:07:39;100093.59;;;14.11;60.43
40490;BME280;26196;52.302;10.572;2023-04-15T13:12:14;100092.75;;;14.11;61.23
40490;BME280;26196;52.302;10.572;2023-04-15T13:16:49;100096.16;;;14.13;60.47
40490;BME280;26196;52.302;10.572;2023-04-15T13:21:27;100102.97;;;14.17;61.28
40490;BME280;26196;52.302;10.572;2023-04-15T13:26:01;100110.72;;;14.20;61.27
40490;BME280;26196;52.302;10.572;2023-04-15T13:39:48;100113.97;;;14.25;61.93
40490;BME280;26196;52.302;10.572;2023-04-15T14:08:13;100141.34;;;14.40;61.32
40490;BME280;26196;52.302;10.572;2023-04-15T14:12:48;100140.50;;;14.39;61.50
40490;BME280;26196;52.302;10.572;2023-04-15T14:17:25;100147.41;;;14.42;61.29
40490;BME280;26196;52.302;10.572;2023-04-15T14:21:26;100143.91;;;14.41;61.15
40490;BME280;26196;52.302;10.572;2023-04-15T14:26:02;100151.66;;;14.44;60.79
40490;BME280;26196;52.302;10.572;2023-04-15T14:30:36;100157.69;;;14.47;60.77
40490;BME280;26196;52.302;10.572;2023-04-15T14:39:48;100173.50;;;14.47;60.99
40490;BME280;26196;52.302;10.572;2023-04-15T14:44:25;100169.84;;;14.49;60.25
40490;BME280;26196;52.302;10.572;2023-04-15T14:53:39;100180.31;;;14.51;60.52
40490;BME280;26196;52.302;10.572;2023-04-15T15:02:17;100184.63;;;14.53;60.73
40490;BME280;26196;52.302;10.572;2023-04-15T15:06:52;100203.09;;;14.52;60.55
40490;BME280;26196;52.302;10.572;2023-04-15T15:20:21;100218.88;;;14.52;60.10
40490;BME280;26196;52.302;10.572;2023-04-15T15:24:22;100224.06;;;14.55;59.99
40490;BME280;26196;52.302;10.572;2023-04-15T15:28:56;100238.00;;;14.57;59.46
40490;BME280;26196;52.302;10.572;2023-04-15T15:33:31;100242.41;;;14.56;60.19
40490;BME280;26196;52.302;10.572;2023-04-15T15:38:10;100241.41;;;14.59;59.89
40490;BME280;26196;52.302;10.572;2023-04-15T15:42:44;100252.03;;;14.57;59.77
40490;BME280;26196;52.302;10.572;2023-04-15T15:47:20;100252.72;;;14.61;59.37
40490;BME280;26196;52.302;10.572;2023-04-15T15:51:55;100255.28;;;14.62;59.76
40490;BME280;26196;52.302;10.572;2023-04-15T15:56:33;100258.00;;;14.61;59.68
40490;BME280;26196;52.302;10.572;2023-04-15T16:05:30;100254.38;;;14.63;59.19
40490;BME280;26196;52.302;10.572;2023-04-15T16:10:05;100268.31;;;14.65;59.40
40490;BME280;26196;52.302;10.572;2023-04-15T16:14:40;100266.53;;;14.66;59.68
40490;BME280;26196;52.302;10.572;2023-04-15T16:19:16;100271.66;;;14.69;59.15
40490;BME280;26196;52.302;10.572;2023-04-15T16:23:54;100269.97;;;14.68;59.38
40490;BME280;26196;52.302;10.572;2023-04-15T16:33:08;100288.31;;;14.70;59.43
40490;BME280;26196;52.302;10.572;2023-04-15T16:37:46;100290.03;;;14.71;59.24
40490;BME280;26196;52.302;10.572;2023-04-15T16:42:23;100294.50;;;14.69;59.76
40490;BME280;26196;52.302;10.572;2023-04-15T16:46:58;100297.06;;;14.70;59.24
40490;BME280;26196;52.302;10.572;2023-04-15T16:50:58;100303.28;;;14.69;59.64
40490;BME280;26196;52.302;10.572;2023-04-15T16:54:59;100307.75;;;14.67;59.55
40490;BME280;26196;52.302;10.572;2023-04-15T16:58:59;100305.84;;;14.71;58.70
40490;BME280;26196;52.302;10.572;2023-04-15T17:03:00;100313.75;;;14.71;59.20
40490;BME280;26196;52.302;10.572;2023-04-15T17:07:37;100320.56;;;14.75;58.57
40490;BME280;26196;52.302;10.572;2023-04-15T17:21:26;100335.53;;;14.74;58.98
40490;BME280;26196;52.302;10.572;2023-04-15T17:35:02;100349.53;;;14.75;58.83
40490;BME280;26196;52.302;10.572;2023-04-15T17:44:13;100368.56;;;14.81;59.02
40490;BME280;26196;52.302;10.572;2023-04-15T17:53:22;100371.84;;;14.86;59.56
40490;BME280;26196;52.302;10.572;2023-04-15T17:58:00;100386.56;;;14.91;58.61
40490;BME280;26196;52.302;10.572;2023-04-15T18:02:38;100392.78;;;14.90;59.07
40490;BME280;26196;52.302;10.572;2023-04-15T18:07:16;100398.19;;;14.86;59.05
40490;BME280;26196;52.302;10.572;2023-04-15T18:11:16;100406.88;;;14.88;58.48
40490;BME280;26196;52.302;10.572;2023-04-15T18:15:51;100409.59;;;14.87;58.55
40490;BME280;26196;52.302;10.572;2023-04-15T18:19:51;100418.34;;;14.87;58.84
40490;BME280;26196;52.302;10.572;2023-04-15T18:24:27;100421.75;;;14.90;58.55
40490;BME280;26196;52.302;10.572;2023-04-15T18:33:38;100438.50;;;14.88;58.69
40490;BME280;26196;52.302;10.572;2023-04-15T18:38:16;100439.56;;;14.84;58.49
40490;BME280;26196;52.302;10.572;2023-04-15T18:46:54;100451.59;;;14.90;58.51
40490;BME280;26196;52.302;10.572;2023-04-15T18:51:28;100455.16;;;14.89;58.16
40490;BME280;26196;52.302;10.572;2023-04-15T19:04:53;100466.56;;;14.90;58.03
40490;BME280;26196;52.302;10.572;2023-04-15T19:09:27;100477.09;;;14.90;58.11
40490;BME280;26196;52.302;10.572;2023-04-15T19:14:02;100487.56;;;14.91;58.29
40490;BME280;26196;52.302;10.572;2023-04-15T19:18:39;100482.38;;;14.90;58.03
40490;BME280;26196;52.302;10.572;2023-04-15T19:23:17;100492.91;;;14.90;58.11
40490;BME280;26196;52.302;10.572;2023-04-15T19:27:51;100496.34;;;14.92;57.89
40490;BME280;26196;52.302;10.572;2023-04-15T19:32:29;100501.66;;;14.90;58.17
40490;BME280;26196;52.302;10.572;2023-04-15T19:37:03;100503.31;;;14.93;57.62
40490;BME280;26196;52.302;10.572;2023-04-15T19:51:03;100504.31;;;14.90;57.81
40490;BME280;26196;52.302;10.572;2023-04-15T19:55:41;100507.72;;;14.92;57.57
40490;BME280;26196;52.302;10.572;2023-04-15T20:04:39;100519.13;;;14.93;57.82
40490;BME280;26196;52.302;10.572;2023-04-15T20:09:10;100520.75;;;14.95;57.82
40490;BME280;26196;52.302;10.572;2023-04-15T20:13:47;100524.34;;;14.94;57.99
40490;BME280;26196;52.302;10.572;2023-04-15T20:17:48;100522.56;;;14.95;57.53
40490;BME280;26196;52.302;10.572;2023-04-15T20:22:24;100528.63;;;14.97;57.66
40490;BME280;26196;52.302;10.572;2023-04-15T20:26:24;100522.56;;;14.95;57.47
40490;BME280;26196;52.302;10.572;2023-04-15T20:31:02;100533.00;;;14.96;57.75
40490;BME280;26196;52.302;10.572;2023-04-15T20:35:03;100535.38;;;15.02;57.44
40490;BME280;26196;52.302;10.572;2023-04-15T20:39:39;100538.94;;;15.01;57.80
40490;BME280;26196;52.302;10.572;2023-04-15T20:43:39;100536.53;;;14.97;57.67
40490;BME280;26196;52.302;10.572;2023-04-15T20:47:40;100546.97;;;14.98;57.68
40490;BME280;26196;52.302;10.572;2023-04-15T20:51:40;100551.41;;;14.98;57.26
40490;BME280;26196;52.302;10.572;2023-04-15T20:55:40;100546.28;;;14.95;57.40
40490;BME280;26196;52.302;10.572;2023-04-15T21:00:16;100557.66;;;14.95;57.35
40490;BME280;26196;52.302;10.572;2023-04-15T21:04:54;100562.88;;;14.97;57.11
40490;BME280;26196;52.302;10.572;2023-04-15T21:09:28;100561.16;;;14.96;57.44
40490;BME280;26196;52.302;10.572;2023-04-15T21:14:06;100571.63;;;14.97;57.51
40490;BME280;26196;52.302;10.572;2023-04-15T21:18:41;100571.78;;;14.94;57.46
40490;BME280;26196;52.302;10.572;2023-04-15T21:22:42;100573.44;;;14.97;57.32
40490;BME280;26196;52.302;10.572;2023-04-15T21:26:42;100582.09;;;14.99;56.91
40490;BME280;26196;52.302;10.572;2023-04-15T21:30:42;100578.81;;;14.94;57.07
40490;BME280;26196;52.302;10.572;2023-04-15T21:35:18;100587.66;;;14.93;56.99
40490;BME280;26196;52.302;10.572;2023-04-15T21:39:19;100598.06;;;14.96;57.15
40490;BME280;26196;52.302;10.572;2023-04-15T21:43:56;100603.47;;;14.93;56.82
40490;BME280;26196;52.302;10.572;2023-04-15T21:48:30;100610.72;;;14.87;56.81
40490;BME280;26196;52.302;10.572;2023-04-15T21:52:31;100615.97;;;14.87;57.12
40490;BME280;26196;52.302;10.572;2023-04-15T22:01:08;100621.19;;;14.89;56.67
40490;BME280;26196;52.302;10.572;2023-04-15T22:05:08;100624.81;;;14.86;56.57
40490;BME280;26196;52.302;10.572;2023-04-15T22:09:40;100616.06;;;14.86;56.95
40490;BME280;26196;52.302;10.572;2023-04-15T22:13:41;100624.81;;;14.86;56.64
40490;BME280;26196;52.302;10.572;2023-04-15T22:17:41;100628.44;;;14.84;56.74
40490;BME280;26196;52.302;10.572;2023-04-15T22:21:42;100627.66;;;14.82;56.86
40490;BME280;26196;52.302;10.572;2023-04-15T22:25:42;100633.63;;;14.85;56.89
40490;BME280;26196;52.302;10.572;2023-04-15T22:29:43;100639.84;;;14.84;56.58
40490;BME280;26196;52.302;10.572;2023-04-15T22:34:17;100642.66;;;14.80;56.72
40490;BME280;26196;52.302;10.572;2023-04-15T22:38:20;100646.16;;;14.80;56.81
40490;BME280;26196;52.302;10.572;2023-04-15T22:42:21;100646.28;;;14.77;56.80
40490;BME280;26196;52.302;10.572;2023-04-15T22:46:21;100660.25;;;14.79;56.78
40490;BME280;26196;52.302;10.572;2023-04-15T22:50:56;100660.25;;;14.79;56.79
40490;BME280;26196;52.302;10.572;2023-04-15T22:54:56;100656.03;;;14.75;56.44
40490;BME280;26196;52.302;10.572;2023-04-15T22:58:57;100668.28;;;14.76;56.63
40490;BME280;26196;52.302;10.572;2023-04-15T23:02:57;100660.75;;;14.67;56.59
40490;BME280;26196;52.302;10.572;2023-04-15T23:11:34;100682.44;;;14.74;56.74
40490;BME280;26196;52.302;10.572;2023-04-15T23:15:34;100678.16;;;14.71;56.73
40490;BME280;26196;52.302;10.572;2023-04-15T23:19:35;100685.22;;;14.71;56.75
40490;BME280;26196;52.302;10.572;2023-04-15T23:23:35;100683.34;;;14.73;56.84
40490;BME280;26196;52.302;10.572;2023-04-15T23:27:36;100691.56;;;14.65;56.43
40490;BME280;26196;52.302;10.572;2023-04-15T23:31:36;100692.25;;;14.70;56.86
40490;BME280;26196;52.302;10.572;2023-04-15T23:35:36;100692.25;;;14.70;57.03
40490;BME280;26196;52.302;10.572;2023-04-15T23:39:37;100690.50;;;14.71;56.55
40490;BME280;26196;52.302;10.572;2023-04-15T23:43:37;100693.19;;;14.69;56.73
40490;BME280;26196;52.302;10.572;2023-04-15T23:47:38;100698.50;;;14.68;56.49
40490;BME280;26196;52.302;10.572;2023-04-15T23:56:16;100689.06;;;14.62;56.87
